SVA3433 OEJN-HKJK
Flight info
| Callsign | SVA3433 |
|---|---|
| Flight time | 3h 22m |
| Altitude | 39000 |
| Route | RIBAM G650 RASKA/N0463F400 UG650 KONET UM308 RUDOL/N0457F410 UM308 LOTAS LOTAS3A |
| Aircraft | A333/H-SADE1E2E3GHIJ3J5M1P2RWXY/LB2D1 |
Departure
| Time | 2026-04-29 11:40 |
|---|---|
| Airport | King Abdulaziz International Airport (OEJN) |
Arrival
| Time | 2026-04-29 15:02 |
|---|---|
| Airport | Jomo Kenyatta International Airport (HKJK) |
| Time | Latitude | Longitude | Altitude | Speed | Heading |
|---|---|---|---|---|---|
| 2026-04-29 11:06 | 21.66856 | 39.16954 | 49 ft | 0 kts | 50° |
| 2026-04-29 11:13 | 21.66855 | 39.16953 | 49 ft | 1 kts | 50° |
| 2026-04-29 11:13 | 21.66842 | 39.16937 | 44 ft | 3 kts | 50° |
| 2026-04-29 11:14 | 21.66828 | 39.16920 | 41 ft | 3 kts | 63° |
| 2026-04-29 11:14 | 21.66820 | 39.16898 | 43 ft | 3 kts | 93° |
| 2026-04-29 11:14 | 21.66822 | 39.16876 | 45 ft | 3 kts | 118° |
| 2026-04-29 11:14 | 21.66826 | 39.16865 | 44 ft | 0 kts | 143° |
| 2026-04-29 11:35 | 21.66825 | 39.16866 | 47 ft | 1 kts | 143° |
| 2026-04-29 11:35 | 21.66811 | 39.16878 | 47 ft | 3 kts | 143° |
| 2026-04-29 11:35 | 21.66787 | 39.16896 | 47 ft | 5 kts | 146° |
| 2026-04-29 11:35 | 21.66753 | 39.16913 | 46 ft | 6 kts | 155° |
| 2026-04-29 11:36 | 21.66708 | 39.16929 | 47 ft | 8 kts | 161° |
| 2026-04-29 11:36 | 21.66652 | 39.16949 | 48 ft | 10 kts | 163° |
| 2026-04-29 11:36 | 21.66556 | 39.16982 | 46 ft | 21 kts | 162° |
| 2026-04-29 11:36 | 21.66388 | 39.17021 | 45 ft | 25 kts | 180° |
| 2026-04-29 11:37 | 21.66289 | 39.16988 | 47 ft | 0 kts | 210° |
| 2026-04-29 11:37 | 21.66287 | 39.16968 | 46 ft | 7 kts | 257° |
| 2026-04-29 11:37 | 21.66265 | 39.16870 | 45 ft | 19 kts | 251° |
| 2026-04-29 11:37 | 21.66230 | 39.16766 | 44 ft | 7 kts | 250° |
| 2026-04-29 11:38 | 21.66209 | 39.16703 | 43 ft | 11 kts | 250° |
| 2026-04-29 11:38 | 21.66176 | 39.16606 | 42 ft | 13 kts | 250° |
| 2026-04-29 11:38 | 21.66142 | 39.16506 | 41 ft | 9 kts | 250° |
| 2026-04-29 11:38 | 21.66140 | 39.16499 | 41 ft | 2 kts | 250° |
| 2026-04-29 11:39 | 21.66149 | 39.16486 | 41 ft | 4 kts | 304° |
| 2026-04-29 11:39 | 21.66262 | 39.16431 | 41 ft | 50 kts | 339° |
| 2026-04-29 11:39 | 21.66845 | 39.16202 | 43 ft | 127 kts | 340° |
| 2026-04-29 11:39 | 21.67857 | 39.15809 | 237 ft | 168 kts | 340° |
| 2026-04-29 11:40 | 21.68953 | 39.15426 | 1071 ft | 167 kts | 341° |
| 2026-04-29 11:40 | 21.70073 | 39.15049 | 1994 ft | 168 kts | 340° |
| 2026-04-29 11:40 | 21.71160 | 39.14609 | 2720 ft | 171 kts | 338° |
| 2026-04-29 11:40 | 21.72354 | 39.14122 | 3185 ft | 195 kts | 338° |
| 2026-04-29 11:41 | 21.73228 | 39.13771 | 3449 ft | 209 kts | 338° |
| 2026-04-29 11:41 | 21.74678 | 39.13202 | 3839 ft | 235 kts | 338° |
| 2026-04-29 11:41 | 21.76293 | 39.12563 | 4173 ft | 260 kts | 337° |
| 2026-04-29 11:41 | 21.78061 | 39.11855 | 4514 ft | 277 kts | 337° |
| 2026-04-29 11:42 | 21.79889 | 39.11119 | 5110 ft | 283 kts | 337° |
| 2026-04-29 11:42 | 21.81741 | 39.10374 | 5685 ft | 286 kts | 336° |
| 2026-04-29 11:42 | 21.83623 | 39.09620 | 6239 ft | 289 kts | 336° |
| 2026-04-29 11:42 | 21.85508 | 39.08873 | 6937 ft | 290 kts | 336° |
| 2026-04-29 11:43 | 21.87400 | 39.08114 | 7628 ft | 290 kts | 336° |
| 2026-04-29 11:43 | 21.89274 | 39.07359 | 8284 ft | 292 kts | 336° |
| 2026-04-29 11:43 | 21.91155 | 39.06507 | 8931 ft | 293 kts | 332° |
| 2026-04-29 11:43 | 21.93026 | 39.05606 | 9642 ft | 295 kts | 333° |
| 2026-04-29 11:44 | 21.94903 | 39.04703 | 10252 ft | 300 kts | 332° |
| 2026-04-29 11:44 | 21.96878 | 39.03752 | 10452 ft | 319 kts | 332° |
| 2026-04-29 11:44 | 21.98969 | 39.02746 | 10614 ft | 338 kts | 333° |
| 2026-04-29 11:44 | 22.01162 | 39.01698 | 11001 ft | 347 kts | 333° |
| 2026-04-29 11:45 | 22.03378 | 39.00642 | 11584 ft | 350 kts | 333° |
| 2026-04-29 11:45 | 22.05616 | 38.99573 | 12163 ft | 353 kts | 333° |
| 2026-04-29 11:45 | 22.07845 | 38.98508 | 12743 ft | 356 kts | 333° |
| 2026-04-29 11:45 | 22.10136 | 38.97398 | 13323 ft | 357 kts | 330° |
| 2026-04-29 11:46 | 22.12112 | 38.95860 | 13858 ft | 354 kts | 311° |
| 2026-04-29 11:46 | 22.13501 | 38.93713 | 14378 ft | 349 kts | 292° |
| 2026-04-29 11:46 | 22.14145 | 38.91208 | 14923 ft | 347 kts | 274° |
| 2026-04-29 11:46 | 22.14000 | 38.88616 | 15437 ft | 348 kts | 257° |
| 2026-04-29 11:47 | 22.13130 | 38.86171 | 15950 ft | 351 kts | 245° |
| 2026-04-29 11:47 | 22.12087 | 38.83784 | 16425 ft | 353 kts | 246° |
| 2026-04-29 11:47 | 22.11051 | 38.81367 | 16917 ft | 356 kts | 246° |
| 2026-04-29 11:47 | 22.09980 | 38.78954 | 17380 ft | 359 kts | 242° |
| 2026-04-29 11:48 | 22.08419 | 38.76830 | 17865 ft | 366 kts | 226° |
| 2026-04-29 11:48 | 22.06310 | 38.75243 | 18303 ft | 375 kts | 210° |
| 2026-04-29 11:48 | 22.03791 | 38.74367 | 18691 ft | 387 kts | 193° |
| 2026-04-29 11:48 | 22.01068 | 38.74313 | 19094 ft | 399 kts | 176° |
| 2026-04-29 11:49 | 21.98394 | 38.75070 | 19488 ft | 408 kts | 163° |
| 2026-04-29 11:49 | 21.95703 | 38.76209 | 19870 ft | 413 kts | 161° |
| 2026-04-29 11:49 | 21.93071 | 38.77372 | 20266 ft | 416 kts | 161° |
| 2026-04-29 11:49 | 21.90373 | 38.78542 | 20671 ft | 419 kts | 162° |
| 2026-04-29 11:50 | 21.87652 | 38.79690 | 21080 ft | 422 kts | 162° |
| 2026-04-29 11:50 | 21.84895 | 38.80830 | 21493 ft | 426 kts | 162° |
| 2026-04-29 11:50 | 21.82151 | 38.81952 | 21904 ft | 429 kts | 162° |
| 2026-04-29 11:50 | 21.79339 | 38.83096 | 22320 ft | 433 kts | 162° |
| 2026-04-29 11:51 | 21.76512 | 38.84247 | 22732 ft | 436 kts | 162° |
| 2026-04-29 11:51 | 21.73669 | 38.85407 | 23163 ft | 440 kts | 162° |
| 2026-04-29 11:51 | 21.70834 | 38.86566 | 23565 ft | 443 kts | 162° |
| 2026-04-29 11:51 | 21.67890 | 38.87770 | 23982 ft | 445 kts | 162° |
| 2026-04-29 11:52 | 21.64986 | 38.88957 | 24378 ft | 447 kts | 163° |
| 2026-04-29 11:52 | 21.62072 | 38.90146 | 24782 ft | 449 kts | 163° |
| 2026-04-29 11:52 | 21.59148 | 38.91339 | 25172 ft | 451 kts | 163° |
| 2026-04-29 11:52 | 21.56210 | 38.92537 | 25547 ft | 453 kts | 163° |
| 2026-04-29 11:53 | 21.53298 | 38.93724 | 25916 ft | 455 kts | 164° |
| 2026-04-29 11:53 | 21.50337 | 38.94930 | 26286 ft | 456 kts | 164° |
| 2026-04-29 11:53 | 21.47368 | 38.96140 | 26642 ft | 458 kts | 164° |
| 2026-04-29 11:53 | 21.44377 | 38.97358 | 27012 ft | 460 kts | 165° |
| 2026-04-29 11:54 | 21.41372 | 38.98580 | 27334 ft | 462 kts | 165° |
| 2026-04-29 11:54 | 21.38346 | 38.99810 | 27693 ft | 464 kts | 165° |
| 2026-04-29 11:54 | 21.35327 | 39.01038 | 28048 ft | 465 kts | 165° |
| 2026-04-29 11:54 | 21.32287 | 39.02273 | 28364 ft | 467 kts | 165° |
| 2026-04-29 11:55 | 21.29242 | 39.03511 | 28696 ft | 469 kts | 166° |
| 2026-04-29 11:55 | 21.26183 | 39.04754 | 29005 ft | 471 kts | 166° |
| 2026-04-29 11:55 | 21.23144 | 39.05988 | 29315 ft | 472 kts | 166° |
| 2026-04-29 11:55 | 21.20014 | 39.07180 | 29625 ft | 470 kts | 170° |
| 2026-04-29 11:56 | 21.16892 | 39.07984 | 29924 ft | 465 kts | 177° |
| 2026-04-29 11:56 | 21.13696 | 39.08412 | 30191 ft | 460 kts | 183° |
| 2026-04-29 11:56 | 21.10506 | 39.08518 | 30453 ft | 459 kts | 186° |
| 2026-04-29 11:56 | 21.07299 | 39.08598 | 30730 ft | 461 kts | 185° |
| 2026-04-29 11:57 | 21.04083 | 39.08693 | 31025 ft | 463 kts | 185° |
| 2026-04-29 11:57 | 21.00860 | 39.08795 | 31305 ft | 465 kts | 185° |
| 2026-04-29 11:57 | 20.97616 | 39.08901 | 31580 ft | 467 kts | 185° |
| 2026-04-29 11:57 | 20.94357 | 39.09006 | 31852 ft | 468 kts | 185° |
| 2026-04-29 11:58 | 20.91099 | 39.09112 | 32121 ft | 470 kts | 185° |
| 2026-04-29 11:58 | 20.87821 | 39.09218 | 32363 ft | 472 kts | 185° |
| 2026-04-29 11:58 | 20.84539 | 39.09323 | 32577 ft | 473 kts | 185° |
| 2026-04-29 11:58 | 20.81235 | 39.09429 | 32777 ft | 475 kts | 185° |
| 2026-04-29 11:59 | 20.77927 | 39.09536 | 32950 ft | 476 kts | 185° |
| 2026-04-29 11:59 | 20.74618 | 39.09642 | 33111 ft | 477 kts | 185° |
| 2026-04-29 11:59 | 20.71292 | 39.09748 | 33260 ft | 477 kts | 185° |
| 2026-04-29 11:59 | 20.67984 | 39.09704 | 33394 ft | 475 kts | 188° |
| 2026-04-29 12:00 | 20.64675 | 39.09612 | 33567 ft | 475 kts | 188° |
| 2026-04-29 12:00 | 20.61372 | 39.09524 | 33738 ft | 474 kts | 187° |
| 2026-04-29 12:00 | 20.58081 | 39.09439 | 33930 ft | 474 kts | 187° |
| 2026-04-29 12:00 | 20.54787 | 39.09356 | 34095 ft | 473 kts | 187° |
| 2026-04-29 12:01 | 20.51502 | 39.09274 | 34273 ft | 472 kts | 187° |
| 2026-04-29 12:01 | 20.48218 | 39.09191 | 34445 ft | 471 kts | 187° |
| 2026-04-29 12:01 | 20.41648 | 39.09024 | 34667 ft | 472 kts | 187° |
| 2026-04-29 12:02 | 20.38396 | 39.08943 | 34945 ft | 469 kts | 187° |
| 2026-04-29 12:02 | 20.35136 | 39.08861 | 35110 ft | 468 kts | 187° |
| 2026-04-29 12:02 | 20.31874 | 39.08778 | 35281 ft | 468 kts | 187° |
| 2026-04-29 12:02 | 20.28617 | 39.08696 | 35450 ft | 467 kts | 187° |
| 2026-04-29 12:03 | 20.25368 | 39.08613 | 35630 ft | 467 kts | 186° |
| 2026-04-29 12:03 | 20.22117 | 39.08531 | 35834 ft | 466 kts | 186° |
| 2026-04-29 12:03 | 20.18880 | 39.08450 | 36031 ft | 465 kts | 186° |
| 2026-04-29 12:03 | 20.15652 | 39.08369 | 36225 ft | 464 kts | 186° |
| 2026-04-29 12:04 | 20.12422 | 39.08287 | 36399 ft | 464 kts | 186° |
| 2026-04-29 12:04 | 20.09238 | 39.08207 | 36618 ft | 463 kts | 186° |
| 2026-04-29 12:04 | 20.06029 | 39.08126 | 36819 ft | 462 kts | 186° |
| 2026-04-29 12:04 | 20.02785 | 39.08045 | 37013 ft | 462 kts | 186° |
| 2026-04-29 12:05 | 19.99563 | 39.07964 | 37231 ft | 461 kts | 186° |
| 2026-04-29 12:05 | 19.96360 | 39.07884 | 37420 ft | 460 kts | 186° |
| 2026-04-29 12:05 | 19.93196 | 39.07804 | 37624 ft | 459 kts | 186° |
| 2026-04-29 12:05 | 19.90018 | 39.07725 | 37835 ft | 458 kts | 185° |
| 2026-04-29 12:06 | 19.86837 | 39.07645 | 38017 ft | 458 kts | 185° |
| 2026-04-29 12:06 | 19.83627 | 39.07564 | 38205 ft | 457 kts | 185° |
| 2026-04-29 12:06 | 19.80447 | 39.07485 | 38392 ft | 457 kts | 185° |
| 2026-04-29 12:06 | 19.77266 | 39.07405 | 38575 ft | 456 kts | 185° |
| 2026-04-29 12:07 | 19.74086 | 39.07326 | 38720 ft | 456 kts | 185° |
| 2026-04-29 12:07 | 19.70911 | 39.07247 | 38852 ft | 456 kts | 185° |
| 2026-04-29 12:07 | 19.64603 | 39.07090 | 38876 ft | 455 kts | 185° |
| 2026-04-29 12:08 | 19.58279 | 39.06933 | 38874 ft | 455 kts | 185° |
| 2026-04-29 12:08 | 19.51936 | 39.06775 | 38877 ft | 456 kts | 185° |
| 2026-04-29 12:09 | 19.45591 | 39.06617 | 38874 ft | 456 kts | 185° |
| 2026-04-29 12:09 | 19.39247 | 39.06460 | 38871 ft | 456 kts | 185° |
| 2026-04-29 12:10 | 19.32904 | 39.06303 | 38876 ft | 456 kts | 185° |
| 2026-04-29 12:10 | 19.26556 | 39.06146 | 38872 ft | 456 kts | 185° |
| 2026-04-29 12:11 | 19.20210 | 39.05989 | 38876 ft | 456 kts | 185° |
| 2026-04-29 12:11 | 19.13865 | 39.05832 | 38875 ft | 456 kts | 185° |
| 2026-04-29 12:12 | 19.07515 | 39.05580 | 38874 ft | 456 kts | 186° |
| 2026-04-29 12:12 | 19.01214 | 39.05188 | 38874 ft | 456 kts | 186° |
| 2026-04-29 12:13 | 18.94865 | 39.04815 | 38874 ft | 457 kts | 186° |
| 2026-04-29 12:13 | 18.88518 | 39.04460 | 38882 ft | 457 kts | 186° |
| 2026-04-29 12:14 | 18.82165 | 39.04108 | 38882 ft | 457 kts | 186° |
| 2026-04-29 12:14 | 18.75805 | 39.03755 | 38879 ft | 458 kts | 186° |
| 2026-04-29 12:15 | 18.69430 | 39.03401 | 38880 ft | 458 kts | 186° |
| 2026-04-29 12:15 | 18.63066 | 39.03048 | 38881 ft | 458 kts | 186° |
| 2026-04-29 12:16 | 18.56691 | 39.02695 | 38882 ft | 458 kts | 186° |
| 2026-04-29 12:16 | 18.50324 | 39.02343 | 38883 ft | 458 kts | 186° |
| 2026-04-29 12:17 | 18.43980 | 39.01993 | 38881 ft | 459 kts | 185° |
| 2026-04-29 12:17 | 18.37601 | 39.01640 | 38883 ft | 459 kts | 185° |
| 2026-04-29 12:18 | 18.31222 | 39.01288 | 38882 ft | 459 kts | 185° |
| 2026-04-29 12:18 | 18.24847 | 39.00937 | 38885 ft | 459 kts | 185° |
| 2026-04-29 12:19 | 18.18511 | 39.00587 | 38884 ft | 459 kts | 185° |
| 2026-04-29 12:19 | 18.12134 | 39.00288 | 38883 ft | 459 kts | 184° |
| 2026-04-29 12:20 | 18.05746 | 39.00082 | 38881 ft | 459 kts | 184° |
| 2026-04-29 12:20 | 17.99351 | 38.99864 | 38882 ft | 459 kts | 184° |
| 2026-04-29 12:21 | 17.92974 | 38.99636 | 38881 ft | 458 kts | 184° |
| 2026-04-29 12:21 | 17.86586 | 38.99406 | 38879 ft | 458 kts | 184° |
| 2026-04-29 12:22 | 17.80252 | 38.99178 | 38879 ft | 458 kts | 184° |
| 2026-04-29 12:22 | 17.73879 | 38.98950 | 38879 ft | 458 kts | 184° |
| 2026-04-29 12:23 | 17.67505 | 38.98721 | 38877 ft | 458 kts | 184° |
| 2026-04-29 12:23 | 17.61132 | 38.98492 | 38878 ft | 458 kts | 184° |
| 2026-04-29 12:24 | 17.54751 | 38.98264 | 38876 ft | 458 kts | 184° |
| 2026-04-29 12:24 | 17.48363 | 38.98033 | 38875 ft | 459 kts | 184° |
| 2026-04-29 12:25 | 17.43060 | 38.97845 | 38875 ft | 459 kts | 184° |
| 2026-04-29 12:26 | 17.33464 | 38.97498 | 39079 ft | 460 kts | 184° |
| 2026-04-29 12:26 | 17.29230 | 38.97342 | 39275 ft | 459 kts | 184° |
| 2026-04-29 12:26 | 17.27079 | 38.97264 | 39379 ft | 458 kts | 184° |
| 2026-04-29 12:26 | 17.23889 | 38.97147 | 39527 ft | 458 kts | 184° |
| 2026-04-29 12:27 | 17.20704 | 38.97031 | 39667 ft | 458 kts | 184° |
| 2026-04-29 12:27 | 17.17511 | 38.96915 | 39810 ft | 457 kts | 184° |
| 2026-04-29 12:27 | 17.14335 | 38.96799 | 39876 ft | 457 kts | 184° |
| 2026-04-29 12:28 | 17.07990 | 38.96567 | 39886 ft | 456 kts | 184° |
| 2026-04-29 12:28 | 17.01677 | 38.96337 | 39873 ft | 456 kts | 184° |
| 2026-04-29 12:29 | 16.95332 | 38.96106 | 39873 ft | 456 kts | 184° |
| 2026-04-29 12:29 | 16.88987 | 38.95875 | 39873 ft | 457 kts | 184° |
| 2026-04-29 12:30 | 16.82623 | 38.95644 | 39876 ft | 457 kts | 184° |
| 2026-04-29 12:30 | 16.76257 | 38.95412 | 39884 ft | 456 kts | 183° |
| 2026-04-29 12:31 | 16.69943 | 38.95183 | 39865 ft | 457 kts | 183° |
| 2026-04-29 12:31 | 16.63587 | 38.94952 | 39877 ft | 457 kts | 183° |
| 2026-04-29 12:32 | 16.57242 | 38.94721 | 39889 ft | 457 kts | 183° |
| 2026-04-29 12:32 | 16.50876 | 38.94490 | 39876 ft | 457 kts | 183° |
| 2026-04-29 12:33 | 16.44509 | 38.94261 | 39884 ft | 457 kts | 183° |
| 2026-04-29 12:33 | 16.38148 | 38.94030 | 39892 ft | 458 kts | 183° |
| 2026-04-29 12:34 | 16.31768 | 38.93799 | 39889 ft | 458 kts | 183° |
| 2026-04-29 12:34 | 16.25428 | 38.93570 | 39889 ft | 459 kts | 183° |
| 2026-04-29 12:35 | 16.19050 | 38.93340 | 39899 ft | 459 kts | 183° |
| 2026-04-29 12:35 | 16.12649 | 38.93109 | 39907 ft | 460 kts | 183° |
| 2026-04-29 12:36 | 16.06252 | 38.92878 | 39912 ft | 460 kts | 183° |
| 2026-04-29 12:36 | 15.99852 | 38.92647 | 39914 ft | 461 kts | 183° |
| 2026-04-29 12:37 | 15.93430 | 38.92416 | 39917 ft | 461 kts | 183° |
| 2026-04-29 12:37 | 15.87058 | 38.92186 | 39926 ft | 461 kts | 183° |
| 2026-04-29 12:38 | 15.80644 | 38.91955 | 39931 ft | 461 kts | 183° |
| 2026-04-29 12:38 | 15.74224 | 38.91724 | 39955 ft | 461 kts | 183° |
| 2026-04-29 12:39 | 15.67823 | 38.91494 | 39947 ft | 460 kts | 183° |
| 2026-04-29 12:39 | 15.61412 | 38.91264 | 39945 ft | 460 kts | 183° |
| 2026-04-29 12:40 | 15.55051 | 38.91035 | 39956 ft | 460 kts | 183° |
| 2026-04-29 12:40 | 15.48646 | 38.90806 | 39952 ft | 460 kts | 183° |
| 2026-04-29 12:41 | 15.42232 | 38.90576 | 39970 ft | 460 kts | 183° |
| 2026-04-29 12:41 | 15.35825 | 38.90346 | 39971 ft | 461 kts | 183° |
| 2026-04-29 12:42 | 15.29456 | 38.90118 | 39972 ft | 461 kts | 182° |
| 2026-04-29 12:42 | 15.23046 | 38.90008 | 39956 ft | 461 kts | 180° |
| 2026-04-29 12:43 | 15.16632 | 38.90048 | 39963 ft | 461 kts | 180° |
| 2026-04-29 12:43 | 15.10222 | 38.90062 | 39960 ft | 461 kts | 181° |
| 2026-04-29 12:44 | 15.03798 | 38.90057 | 39958 ft | 461 kts | 181° |
| 2026-04-29 12:44 | 14.97384 | 38.90050 | 39946 ft | 461 kts | 181° |
| 2026-04-29 12:45 | 14.90970 | 38.90043 | 39923 ft | 459 kts | 181° |
| 2026-04-29 12:45 | 14.84607 | 38.90036 | 39913 ft | 459 kts | 181° |
| 2026-04-29 12:46 | 14.78205 | 38.90029 | 39903 ft | 460 kts | 181° |
| 2026-04-29 12:46 | 14.71812 | 38.90024 | 39901 ft | 460 kts | 181° |
| 2026-04-29 12:47 | 14.65393 | 38.90017 | 39884 ft | 461 kts | 181° |
| 2026-04-29 12:47 | 14.58973 | 38.90010 | 39888 ft | 460 kts | 180° |
| 2026-04-29 12:48 | 14.52559 | 38.90002 | 41446 ft | 465 kts | 180° |
| 2026-04-29 12:48 | 14.49277 | 38.89997 | 41067 ft | 476 kts | 180° |
| 2026-04-29 12:48 | 14.45959 | 38.89974 | 40696 ft | 477 kts | 181° |
| 2026-04-29 12:48 | 14.42669 | 38.89934 | 40313 ft | 474 kts | 181° |
| 2026-04-29 12:49 | 14.39387 | 38.89891 | 40001 ft | 471 kts | 181° |
| 2026-04-29 12:49 | 14.32819 | 38.89812 | 40001 ft | 474 kts | 181° |
| 2026-04-29 12:50 | 14.26207 | 38.89739 | 39999 ft | 475 kts | 181° |
| 2026-04-29 12:50 | 14.19607 | 38.89667 | 39999 ft | 474 kts | 181° |
| 2026-04-29 12:51 | 14.13004 | 38.89596 | 40003 ft | 474 kts | 181° |
| 2026-04-29 12:51 | 14.06398 | 38.89524 | 40001 ft | 474 kts | 181° |
| 2026-04-29 12:52 | 13.99788 | 38.89437 | 39999 ft | 474 kts | 181° |
| 2026-04-29 12:52 | 13.93221 | 38.89309 | 40000 ft | 474 kts | 181° |
| 2026-04-29 12:53 | 13.86577 | 38.89184 | 40003 ft | 474 kts | 181° |
| 2026-04-29 12:53 | 13.80016 | 38.89065 | 40003 ft | 475 kts | 181° |
| 2026-04-29 12:54 | 13.73408 | 38.88946 | 40000 ft | 474 kts | 181° |
| 2026-04-29 12:54 | 13.66796 | 38.88826 | 40002 ft | 475 kts | 181° |
| 2026-04-29 12:55 | 13.60194 | 38.88708 | 40001 ft | 474 kts | 181° |
| 2026-04-29 12:55 | 13.53583 | 38.88589 | 40001 ft | 474 kts | 181° |
| 2026-04-29 12:56 | 13.46980 | 38.88470 | 40000 ft | 474 kts | 181° |
| 2026-04-29 12:56 | 13.40378 | 38.88351 | 40003 ft | 474 kts | 181° |
| 2026-04-29 12:57 | 13.33814 | 38.88233 | 40000 ft | 474 kts | 181° |
| 2026-04-29 12:57 | 13.27224 | 38.88115 | 40000 ft | 474 kts | 181° |
| 2026-04-29 12:58 | 13.20617 | 38.87996 | 40000 ft | 474 kts | 181° |
| 2026-04-29 12:58 | 13.14012 | 38.87877 | 40000 ft | 474 kts | 181° |
| 2026-04-29 12:59 | 13.07413 | 38.87759 | 40000 ft | 474 kts | 181° |
| 2026-04-29 12:59 | 13.00812 | 38.87641 | 40000 ft | 474 kts | 181° |
| 2026-04-29 13:00 | 12.94209 | 38.87523 | 40000 ft | 474 kts | 181° |
| 2026-04-29 13:00 | 12.87607 | 38.87372 | 40001 ft | 474 kts | 182° |
| 2026-04-29 13:01 | 12.81041 | 38.87174 | 40000 ft | 474 kts | 182° |
| 2026-04-29 13:01 | 12.74440 | 38.86982 | 38408 ft | 474 kts | 181° |
| 2026-04-29 13:01 | 12.71163 | 38.86889 | 38748 ft | 468 kts | 181° |
| 2026-04-29 13:02 | 12.67926 | 38.86798 | 39097 ft | 464 kts | 181° |
| 2026-04-29 13:02 | 12.64709 | 38.86708 | 39450 ft | 461 kts | 181° |
| 2026-04-29 13:02 | 12.61510 | 38.86619 | 39808 ft | 458 kts | 181° |
| 2026-04-29 13:03 | 12.55074 | 38.86439 | 39887 ft | 467 kts | 181° |
| 2026-04-29 13:03 | 12.48551 | 38.86257 | 39908 ft | 469 kts | 181° |
| 2026-04-29 13:04 | 12.42033 | 38.86074 | 39898 ft | 468 kts | 181° |
| 2026-04-29 13:04 | 12.35529 | 38.85893 | 39902 ft | 467 kts | 181° |
| 2026-04-29 13:05 | 12.29025 | 38.85711 | 39910 ft | 467 kts | 181° |
| 2026-04-29 13:05 | 12.22522 | 38.85531 | 39918 ft | 467 kts | 181° |
| 2026-04-29 13:06 | 12.16013 | 38.85351 | 39930 ft | 467 kts | 181° |
| 2026-04-29 13:06 | 12.09516 | 38.85172 | 39911 ft | 467 kts | 181° |
| 2026-04-29 13:07 | 12.03058 | 38.84994 | 39912 ft | 466 kts | 181° |
| 2026-04-29 13:07 | 11.96561 | 38.84814 | 39919 ft | 467 kts | 181° |
| 2026-04-29 13:08 | 11.90064 | 38.84635 | 39919 ft | 467 kts | 181° |
| 2026-04-29 13:08 | 11.83556 | 38.84455 | 39925 ft | 467 kts | 181° |
| 2026-04-29 13:09 | 11.77059 | 38.84277 | 39918 ft | 467 kts | 181° |
| 2026-04-29 13:09 | 11.71658 | 38.84128 | 39920 ft | 467 kts | 181° |
| 2026-04-29 13:10 | 11.65155 | 38.83949 | 39912 ft | 468 kts | 181° |
| 2026-04-29 13:10 | 11.57571 | 38.83740 | 39921 ft | 469 kts | 181° |
| 2026-04-29 13:11 | 11.52159 | 38.83591 | 39913 ft | 468 kts | 181° |
| 2026-04-29 13:11 | 11.45634 | 38.83412 | 39916 ft | 469 kts | 181° |
| 2026-04-29 13:12 | 11.39111 | 38.83233 | 39889 ft | 468 kts | 181° |
| 2026-04-29 13:12 | 11.32581 | 38.83053 | 39891 ft | 468 kts | 181° |
| 2026-04-29 13:13 | 11.26103 | 38.82874 | 39897 ft | 468 kts | 181° |
| 2026-04-29 13:13 | 11.19581 | 38.82696 | 39899 ft | 467 kts | 181° |
| 2026-04-29 13:14 | 11.13089 | 38.82516 | 39906 ft | 467 kts | 181° |
| 2026-04-29 13:14 | 11.06637 | 38.82340 | 39915 ft | 466 kts | 181° |
| 2026-04-29 13:15 | 11.00148 | 38.82162 | 39935 ft | 466 kts | 181° |
| 2026-04-29 13:15 | 10.93652 | 38.81982 | 39921 ft | 466 kts | 181° |
| 2026-04-29 13:16 | 10.87176 | 38.81804 | 39915 ft | 466 kts | 181° |
| 2026-04-29 13:16 | 10.80698 | 38.81628 | 39914 ft | 465 kts | 181° |
| 2026-04-29 13:17 | 10.74280 | 38.81453 | 39912 ft | 465 kts | 181° |
| 2026-04-29 13:17 | 10.67826 | 38.81276 | 39899 ft | 464 kts | 181° |
| 2026-04-29 13:18 | 10.61337 | 38.81098 | 39898 ft | 464 kts | 181° |
| 2026-04-29 13:18 | 10.54885 | 38.80921 | 39865 ft | 464 kts | 181° |
| 2026-04-29 13:19 | 10.48428 | 38.80745 | 39854 ft | 464 kts | 181° |
| 2026-04-29 13:19 | 10.41976 | 38.80569 | 39850 ft | 464 kts | 181° |
| 2026-04-29 13:20 | 10.35506 | 38.80392 | 39833 ft | 464 kts | 181° |
| 2026-04-29 13:20 | 10.29045 | 38.80215 | 39837 ft | 464 kts | 181° |
| 2026-04-29 13:21 | 10.22580 | 38.80039 | 39829 ft | 465 kts | 181° |
| 2026-04-29 13:21 | 10.16108 | 38.79862 | 39830 ft | 465 kts | 181° |
| 2026-04-29 13:22 | 10.09689 | 38.79687 | 39836 ft | 465 kts | 181° |
| 2026-04-29 13:22 | 10.03219 | 38.79512 | 39848 ft | 465 kts | 181° |
| 2026-04-29 13:23 | 9.96752 | 38.79335 | 39855 ft | 465 kts | 181° |
| 2026-04-29 13:23 | 9.90290 | 38.79158 | 39861 ft | 465 kts | 180° |
| 2026-04-29 13:24 | 9.83821 | 38.78982 | 39867 ft | 465 kts | 180° |
| 2026-04-29 13:24 | 9.77359 | 38.78806 | 39883 ft | 465 kts | 180° |
| 2026-04-29 13:25 | 9.70888 | 38.78630 | 39906 ft | 465 kts | 180° |
| 2026-04-29 13:25 | 9.61221 | 38.78367 | 39906 ft | 465 kts | 180° |
| 2026-04-29 13:26 | 9.54751 | 38.78191 | 39915 ft | 465 kts | 180° |
| 2026-04-29 13:26 | 9.48277 | 38.78015 | 39921 ft | 465 kts | 180° |
| 2026-04-29 13:27 | 9.41814 | 38.77838 | 39929 ft | 465 kts | 180° |
| 2026-04-29 13:27 | 9.35915 | 38.77677 | 39928 ft | 465 kts | 180° |
| 2026-04-29 13:28 | 9.29454 | 38.77503 | 39979 ft | 465 kts | 180° |
| 2026-04-29 13:28 | 9.23006 | 38.77328 | 40053 ft | 465 kts | 180° |
| 2026-04-29 13:29 | 9.16518 | 38.77152 | 40127 ft | 465 kts | 180° |
| 2026-04-29 13:29 | 9.10113 | 38.76696 | 40199 ft | 465 kts | 187° |
| 2026-04-29 13:30 | 9.03718 | 38.75276 | 40251 ft | 466 kts | 193° |
| 2026-04-29 13:30 | 8.97468 | 38.73689 | 40235 ft | 466 kts | 192° |
| 2026-04-29 13:31 | 8.91168 | 38.72111 | 40221 ft | 465 kts | 192° |
| 2026-04-29 13:31 | 8.84895 | 38.70539 | 40155 ft | 464 kts | 192° |
| 2026-04-29 13:32 | 8.78626 | 38.68968 | 40073 ft | 464 kts | 192° |
| 2026-04-29 13:32 | 8.72349 | 38.67396 | 39992 ft | 465 kts | 192° |
| 2026-04-29 13:33 | 8.66088 | 38.65831 | 39908 ft | 462 kts | 192° |
| 2026-04-29 13:33 | 8.59837 | 38.64263 | 39883 ft | 463 kts | 192° |
| 2026-04-29 13:34 | 8.53615 | 38.62705 | 39893 ft | 463 kts | 192° |
| 2026-04-29 13:34 | 8.47316 | 38.61132 | 39895 ft | 463 kts | 192° |
| 2026-04-29 13:35 | 8.41101 | 38.59580 | 39913 ft | 462 kts | 192° |
| 2026-04-29 13:35 | 8.34841 | 38.58015 | 39900 ft | 463 kts | 192° |
| 2026-04-29 13:36 | 8.28606 | 38.56456 | 39897 ft | 462 kts | 192° |
| 2026-04-29 13:36 | 8.22368 | 38.54895 | 39898 ft | 461 kts | 192° |
| 2026-04-29 13:37 | 8.16134 | 38.53336 | 39906 ft | 462 kts | 192° |
| 2026-04-29 13:37 | 8.09891 | 38.51782 | 39903 ft | 462 kts | 192° |
| 2026-04-29 13:38 | 8.03682 | 38.50237 | 39879 ft | 463 kts | 192° |
| 2026-04-29 13:38 | 7.97444 | 38.48683 | 39873 ft | 461 kts | 192° |
| 2026-04-29 13:39 | 7.91192 | 38.47129 | 39867 ft | 462 kts | 192° |
| 2026-04-29 13:39 | 7.84941 | 38.45575 | 39868 ft | 461 kts | 192° |
| 2026-04-29 13:40 | 7.78683 | 38.44016 | 39861 ft | 464 kts | 193° |
| 2026-04-29 13:40 | 7.72419 | 38.42459 | 39847 ft | 464 kts | 193° |
| 2026-04-29 13:41 | 7.66197 | 38.40914 | 39845 ft | 464 kts | 193° |
| 2026-04-29 13:41 | 7.59918 | 38.39353 | 39849 ft | 464 kts | 193° |
| 2026-04-29 13:42 | 7.53648 | 38.37795 | 39863 ft | 464 kts | 193° |
| 2026-04-29 13:42 | 7.47354 | 38.36231 | 39860 ft | 464 kts | 193° |
| 2026-04-29 13:43 | 7.41111 | 38.34553 | 39855 ft | 465 kts | 194° |
| 2026-04-29 13:43 | 7.34873 | 38.32830 | 39862 ft | 465 kts | 194° |
| 2026-04-29 13:44 | 7.28621 | 38.31123 | 39873 ft | 465 kts | 194° |
| 2026-04-29 13:44 | 7.22374 | 38.29426 | 39881 ft | 465 kts | 194° |
| 2026-04-29 13:45 | 7.16174 | 38.27743 | 39884 ft | 465 kts | 194° |
| 2026-04-29 13:45 | 7.09910 | 38.26043 | 39893 ft | 465 kts | 194° |
| 2026-04-29 13:46 | 7.03653 | 38.24346 | 39900 ft | 465 kts | 194° |
| 2026-04-29 13:46 | 6.97450 | 38.22663 | 39908 ft | 465 kts | 194° |
| 2026-04-29 13:47 | 6.91205 | 38.20968 | 39908 ft | 465 kts | 194° |
| 2026-04-29 13:47 | 6.84952 | 38.19273 | 39911 ft | 465 kts | 194° |
| 2026-04-29 13:48 | 6.78700 | 38.17580 | 39928 ft | 465 kts | 194° |
| 2026-04-29 13:48 | 6.72440 | 38.15884 | 39911 ft | 465 kts | 194° |
| 2026-04-29 13:49 | 6.66227 | 38.14200 | 39902 ft | 465 kts | 194° |
| 2026-04-29 13:49 | 6.59984 | 38.12509 | 39905 ft | 465 kts | 194° |
| 2026-04-29 13:50 | 6.53739 | 38.10818 | 39901 ft | 465 kts | 194° |
| 2026-04-29 13:50 | 6.47480 | 38.09117 | 39908 ft | 465 kts | 194° |
| 2026-04-29 13:51 | 6.41230 | 38.07411 | 39911 ft | 465 kts | 194° |
| 2026-04-29 13:51 | 6.35011 | 38.05715 | 39942 ft | 466 kts | 194° |
| 2026-04-29 13:52 | 6.31884 | 38.04862 | 40100 ft | 466 kts | 194° |
| 2026-04-29 13:52 | 6.28753 | 38.04009 | 40260 ft | 465 kts | 194° |
| 2026-04-29 13:52 | 6.25638 | 38.03161 | 40410 ft | 465 kts | 194° |
| 2026-04-29 13:52 | 6.22516 | 38.02310 | 40556 ft | 464 kts | 194° |
| 2026-04-29 13:53 | 6.19396 | 38.01460 | 40713 ft | 463 kts | 194° |
| 2026-04-29 13:53 | 6.16282 | 38.00612 | 40835 ft | 463 kts | 194° |
| 2026-04-29 13:53 | 6.10052 | 37.98915 | 40928 ft | 463 kts | 194° |
| 2026-04-29 13:54 | 6.03830 | 37.97221 | 40927 ft | 463 kts | 194° |
| 2026-04-29 13:54 | 5.97598 | 37.95525 | 40931 ft | 463 kts | 194° |
| 2026-04-29 13:55 | 5.91417 | 37.93844 | 40930 ft | 463 kts | 194° |
| 2026-04-29 13:55 | 5.85190 | 37.92150 | 40933 ft | 463 kts | 194° |
| 2026-04-29 13:56 | 5.78963 | 37.90456 | 40937 ft | 464 kts | 194° |
| 2026-04-29 13:56 | 5.73780 | 37.89047 | 40936 ft | 464 kts | 194° |
| 2026-04-29 13:57 | 5.67538 | 37.87350 | 40935 ft | 464 kts | 194° |
| 2026-04-29 13:57 | 5.61314 | 37.85658 | 40939 ft | 464 kts | 194° |
| 2026-04-29 13:58 | 5.55070 | 37.83961 | 40939 ft | 464 kts | 194° |
| 2026-04-29 13:58 | 5.48843 | 37.82269 | 40941 ft | 464 kts | 194° |
| 2026-04-29 13:59 | 5.42606 | 37.80575 | 40940 ft | 464 kts | 194° |
| 2026-04-29 13:59 | 5.36366 | 37.78879 | 40938 ft | 464 kts | 194° |
| 2026-04-29 14:00 | 5.30128 | 37.77186 | 40932 ft | 464 kts | 194° |
| 2026-04-29 14:00 | 5.23879 | 37.75490 | 40924 ft | 465 kts | 194° |
| 2026-04-29 14:01 | 5.17628 | 37.73793 | 40919 ft | 466 kts | 194° |
| 2026-04-29 14:01 | 5.11399 | 37.72103 | 40922 ft | 467 kts | 194° |
| 2026-04-29 14:02 | 5.05123 | 37.70399 | 40919 ft | 468 kts | 194° |
| 2026-04-29 14:02 | 4.98834 | 37.68696 | 40923 ft | 469 kts | 194° |
| 2026-04-29 14:03 | 4.92525 | 37.66984 | 40927 ft | 469 kts | 194° |
| 2026-04-29 14:03 | 4.86214 | 37.65272 | 40926 ft | 470 kts | 194° |
| 2026-04-29 14:04 | 4.79895 | 37.63560 | 40927 ft | 470 kts | 194° |
| 2026-04-29 14:04 | 4.73573 | 37.61846 | 40926 ft | 471 kts | 194° |
| 2026-04-29 14:05 | 4.67253 | 37.60132 | 40928 ft | 471 kts | 194° |
| 2026-04-29 14:05 | 4.60926 | 37.58418 | 40927 ft | 471 kts | 194° |
| 2026-04-29 14:06 | 4.54591 | 37.56703 | 40924 ft | 471 kts | 194° |
| 2026-04-29 14:06 | 4.48257 | 37.54988 | 40924 ft | 471 kts | 194° |
| 2026-04-29 14:07 | 4.41927 | 37.53274 | 40920 ft | 471 kts | 194° |
| 2026-04-29 14:07 | 4.35638 | 37.51571 | 40914 ft | 471 kts | 194° |
| 2026-04-29 14:08 | 4.29310 | 37.49857 | 40909 ft | 471 kts | 194° |
| 2026-04-29 14:08 | 4.22984 | 37.48146 | 40905 ft | 470 kts | 194° |
| 2026-04-29 14:09 | 4.16649 | 37.46432 | 40904 ft | 470 kts | 194° |
| 2026-04-29 14:09 | 4.10376 | 37.44735 | 40897 ft | 470 kts | 194° |
| 2026-04-29 14:10 | 4.04063 | 37.43027 | 40893 ft | 470 kts | 194° |
| 2026-04-29 14:10 | 3.97748 | 37.41310 | 40886 ft | 469 kts | 195° |
| 2026-04-29 14:11 | 3.91489 | 37.39453 | 40878 ft | 469 kts | 195° |
| 2026-04-29 14:11 | 3.85216 | 37.37572 | 40879 ft | 469 kts | 195° |
| 2026-04-29 14:12 | 3.78958 | 37.35717 | 40870 ft | 469 kts | 195° |
| 2026-04-29 14:12 | 3.72694 | 37.33866 | 40872 ft | 469 kts | 195° |
| 2026-04-29 14:13 | 3.66440 | 37.32020 | 40870 ft | 468 kts | 195° |
| 2026-04-29 14:13 | 3.60232 | 37.30186 | 40865 ft | 468 kts | 195° |
| 2026-04-29 14:14 | 3.53976 | 37.28339 | 40862 ft | 468 kts | 195° |
| 2026-04-29 14:14 | 3.47722 | 37.26492 | 40858 ft | 468 kts | 195° |
| 2026-04-29 14:15 | 3.41484 | 37.24649 | 40854 ft | 468 kts | 195° |
| 2026-04-29 14:15 | 3.35241 | 37.22806 | 40853 ft | 468 kts | 195° |
| 2026-04-29 14:16 | 3.28995 | 37.20963 | 40854 ft | 467 kts | 195° |
| 2026-04-29 14:16 | 3.22761 | 37.19123 | 40852 ft | 467 kts | 195° |
| 2026-04-29 14:17 | 3.16555 | 37.17292 | 40857 ft | 467 kts | 195° |
| 2026-04-29 14:17 | 3.10328 | 37.15455 | 40853 ft | 467 kts | 195° |
| 2026-04-29 14:18 | 3.04088 | 37.13614 | 40864 ft | 466 kts | 195° |
| 2026-04-29 14:18 | 2.97859 | 37.11777 | 40861 ft | 466 kts | 195° |
| 2026-04-29 14:19 | 2.91636 | 37.09942 | 40857 ft | 467 kts | 195° |
| 2026-04-29 14:19 | 2.85393 | 37.08101 | 40864 ft | 467 kts | 195° |
| 2026-04-29 14:20 | 2.79148 | 37.06259 | 40864 ft | 467 kts | 195° |
| 2026-04-29 14:20 | 2.72903 | 37.04418 | 40863 ft | 468 kts | 195° |
| 2026-04-29 14:21 | 2.66698 | 37.02589 | 40865 ft | 468 kts | 195° |
| 2026-04-29 14:21 | 2.60437 | 37.00743 | 40870 ft | 469 kts | 195° |
| 2026-04-29 14:22 | 2.54160 | 36.98893 | 40874 ft | 469 kts | 195° |
| 2026-04-29 14:22 | 2.47887 | 36.97045 | 40876 ft | 469 kts | 195° |
| 2026-04-29 14:23 | 2.41630 | 36.95201 | 40874 ft | 469 kts | 195° |
| 2026-04-29 14:23 | 2.35357 | 36.93352 | 40883 ft | 469 kts | 195° |
| 2026-04-29 14:24 | 2.29079 | 36.91503 | 40887 ft | 469 kts | 195° |
| 2026-04-29 14:24 | 2.22806 | 36.89655 | 40894 ft | 469 kts | 195° |
| 2026-04-29 14:25 | 2.16575 | 36.87819 | 40900 ft | 469 kts | 195° |
| 2026-04-29 14:25 | 2.10309 | 36.85973 | 40907 ft | 469 kts | 195° |
| 2026-04-29 14:26 | 2.04054 | 36.84131 | 40915 ft | 469 kts | 195° |
| 2026-04-29 14:26 | 1.97782 | 36.82283 | 40907 ft | 468 kts | 195° |
| 2026-04-29 14:27 | 1.91530 | 36.80443 | 40909 ft | 468 kts | 195° |
| 2026-04-29 14:28 | 1.82152 | 36.77682 | 40906 ft | 468 kts | 195° |
| 2026-04-29 14:28 | 1.75885 | 36.75837 | 40904 ft | 468 kts | 195° |
| 2026-04-29 14:29 | 1.69630 | 36.73996 | 40908 ft | 469 kts | 195° |
| 2026-04-29 14:29 | 1.63360 | 36.72150 | 40907 ft | 469 kts | 195° |
| 2026-04-29 14:30 | 1.57147 | 36.70321 | 40910 ft | 469 kts | 195° |
| 2026-04-29 14:30 | 1.50893 | 36.68480 | 40916 ft | 469 kts | 195° |
| 2026-04-29 14:31 | 1.44620 | 36.66634 | 40921 ft | 469 kts | 195° |
| 2026-04-29 14:31 | 1.38357 | 36.64791 | 40927 ft | 469 kts | 195° |
| 2026-04-29 14:32 | 1.32076 | 36.62943 | 40935 ft | 469 kts | 195° |
| 2026-04-29 14:32 | 1.25806 | 36.61097 | 40939 ft | 469 kts | 195° |
| 2026-04-29 14:33 | 1.19545 | 36.59255 | 40948 ft | 469 kts | 195° |
| 2026-04-29 14:33 | 1.13285 | 36.57413 | 40955 ft | 469 kts | 195° |
| 2026-04-29 14:34 | 1.07051 | 36.55579 | 40958 ft | 469 kts | 195° |
| 2026-04-29 14:34 | 1.00755 | 36.53861 | 40962 ft | 467 kts | 190° |
| 2026-04-29 14:35 | 0.94320 | 36.53029 | 40969 ft | 465 kts | 181° |
| 2026-04-29 14:35 | 0.87854 | 36.52616 | 40965 ft | 465 kts | 182° |
| 2026-04-29 14:36 | 0.81405 | 36.52174 | 40972 ft | 465 kts | 182° |
| 2026-04-29 14:36 | 0.74950 | 36.51730 | 40974 ft | 465 kts | 182° |
| 2026-04-29 14:37 | 0.68497 | 36.51289 | 40975 ft | 465 kts | 182° |
| 2026-04-29 14:37 | 0.63125 | 36.50922 | 40976 ft | 465 kts | 182° |
| 2026-04-29 14:38 | 0.56631 | 36.50479 | 40980 ft | 464 kts | 182° |
| 2026-04-29 14:38 | 0.50226 | 36.50042 | 40982 ft | 464 kts | 182° |
| 2026-04-29 14:39 | 0.43776 | 36.49602 | 40987 ft | 464 kts | 182° |
| 2026-04-29 14:39 | 0.37334 | 36.49163 | 40985 ft | 464 kts | 182° |
| 2026-04-29 14:40 | 0.30888 | 36.48723 | 40989 ft | 464 kts | 182° |
| 2026-04-29 14:40 | 0.24442 | 36.48284 | 40993 ft | 464 kts | 182° |
| 2026-04-29 14:41 | 0.18031 | 36.47847 | 41005 ft | 464 kts | 182° |
| 2026-04-29 14:41 | 0.11596 | 36.47408 | 41012 ft | 464 kts | 182° |
| 2026-04-29 14:42 | 0.05115 | 36.46966 | 41023 ft | 464 kts | 182° |
| 2026-04-29 14:42 | -0.01289 | 36.46529 | 41034 ft | 463 kts | 182° |
| 2026-04-29 14:43 | -0.07719 | 36.46090 | 41039 ft | 463 kts | 182° |
| 2026-04-29 14:43 | -0.14160 | 36.45651 | 41044 ft | 463 kts | 182° |
| 2026-04-29 14:44 | -0.20579 | 36.45213 | 40780 ft | 459 kts | 182° |
| 2026-04-29 14:44 | -0.23777 | 36.44995 | 39842 ft | 463 kts | 182° |
| 2026-04-29 14:44 | -0.27019 | 36.44776 | 38373 ft | 472 kts | 183° |
| 2026-04-29 14:44 | -0.30345 | 36.44551 | 36660 ft | 482 kts | 183° |
| 2026-04-29 14:45 | -0.33721 | 36.44320 | 35308 ft | 488 kts | 183° |
| 2026-04-29 14:45 | -0.37106 | 36.44088 | 34349 ft | 487 kts | 183° |
| 2026-04-29 14:45 | -0.40474 | 36.43857 | 33305 ft | 485 kts | 183° |
| 2026-04-29 14:45 | -0.43849 | 36.43627 | 32187 ft | 486 kts | 183° |
| 2026-04-29 14:46 | -0.47202 | 36.43399 | 30980 ft | 489 kts | 183° |
| 2026-04-29 14:46 | -0.50579 | 36.43169 | 30092 ft | 486 kts | 183° |
| 2026-04-29 14:46 | -0.53938 | 36.42940 | 29352 ft | 479 kts | 183° |
| 2026-04-29 14:46 | -0.57231 | 36.42714 | 28917 ft | 468 kts | 183° |
| 2026-04-29 14:47 | -0.60441 | 36.42494 | 28538 ft | 458 kts | 183° |
| 2026-04-29 14:47 | -0.63610 | 36.42278 | 27875 ft | 454 kts | 183° |
| 2026-04-29 14:47 | -0.66746 | 36.42065 | 27250 ft | 449 kts | 183° |
| 2026-04-29 14:47 | -0.69849 | 36.41853 | 26563 ft | 445 kts | 183° |
| 2026-04-29 14:48 | -0.72917 | 36.41644 | 25952 ft | 439 kts | 183° |
| 2026-04-29 14:48 | -0.75952 | 36.41437 | 25345 ft | 434 kts | 183° |
| 2026-04-29 14:48 | -0.78960 | 36.41232 | 24745 ft | 430 kts | 183° |
| 2026-04-29 14:48 | -0.81940 | 36.41028 | 24129 ft | 426 kts | 183° |
| 2026-04-29 14:49 | -0.84885 | 36.40827 | 23475 ft | 422 kts | 183° |
| 2026-04-29 14:49 | -0.87793 | 36.40629 | 22873 ft | 415 kts | 183° |
| 2026-04-29 14:49 | -0.90653 | 36.40434 | 22274 ft | 408 kts | 183° |
| 2026-04-29 14:49 | -0.93468 | 36.40242 | 21686 ft | 402 kts | 183° |
| 2026-04-29 14:50 | -0.96223 | 36.40055 | 21112 ft | 395 kts | 183° |
| 2026-04-29 14:50 | -0.98936 | 36.39870 | 20511 ft | 390 kts | 183° |
| 2026-04-29 14:50 | -1.01619 | 36.39687 | 19923 ft | 384 kts | 183° |
| 2026-04-29 14:50 | -1.04266 | 36.39507 | 19375 ft | 378 kts | 183° |
| 2026-04-29 14:51 | -1.06899 | 36.39327 | 18822 ft | 384 kts | 184° |
| 2026-04-29 14:51 | -1.09619 | 36.39142 | 18550 ft | 395 kts | 184° |
| 2026-04-29 14:51 | -1.12358 | 36.38955 | 18051 ft | 396 kts | 184° |
| 2026-04-29 14:51 | -1.15110 | 36.38768 | 16924 ft | 398 kts | 184° |
| 2026-04-29 14:52 | -1.17857 | 36.38581 | 16009 ft | 391 kts | 184° |
| 2026-04-29 14:52 | -1.20544 | 36.38397 | 15473 ft | 383 kts | 184° |
| 2026-04-29 14:52 | -1.23217 | 36.38216 | 15181 ft | 383 kts | 184° |
| 2026-04-29 14:52 | -1.25883 | 36.38034 | 14594 ft | 386 kts | 184° |
| 2026-04-29 14:53 | -1.28559 | 36.37890 | 13979 ft | 382 kts | 179° |
| 2026-04-29 14:53 | -1.31132 | 36.38349 | 13398 ft | 372 kts | 161° |
| 2026-04-29 14:53 | -1.33373 | 36.39551 | 12860 ft | 362 kts | 142° |
| 2026-04-29 14:53 | -1.35044 | 36.41366 | 12322 ft | 351 kts | 122° |
| 2026-04-29 14:54 | -1.35951 | 36.43570 | 11826 ft | 340 kts | 101° |
| 2026-04-29 14:54 | -1.36118 | 36.45914 | 11324 ft | 344 kts | 90° |
| 2026-04-29 14:54 | -1.36197 | 36.48400 | 10950 ft | 367 kts | 92° |
| 2026-04-29 14:54 | -1.36353 | 36.50934 | 10591 ft | 361 kts | 94° |
| 2026-04-29 14:55 | -1.36557 | 36.53386 | 10316 ft | 342 kts | 94° |
| 2026-04-29 14:55 | -1.36763 | 36.55576 | 10127 ft | 318 kts | 95° |
| 2026-04-29 14:55 | -1.36969 | 36.57690 | 9700 ft | 298 kts | 95° |
| 2026-04-29 14:55 | -1.37167 | 36.59736 | 9052 ft | 290 kts | 95° |
| 2026-04-29 14:56 | -1.37358 | 36.61712 | 8725 ft | 286 kts | 95° |
| 2026-04-29 14:56 | -1.37549 | 36.63704 | 8615 ft | 290 kts | 95° |
| 2026-04-29 14:56 | -1.37738 | 36.65696 | 8505 ft | 284 kts | 95° |
| 2026-04-29 14:56 | -1.37923 | 36.67627 | 8397 ft | 273 kts | 95° |
| 2026-04-29 14:57 | -1.38099 | 36.69477 | 8070 ft | 260 kts | 95° |
| 2026-04-29 14:57 | -1.38273 | 36.71295 | 7747 ft | 274 kts | 95° |
| 2026-04-29 14:57 | -1.38456 | 36.73224 | 7639 ft | 277 kts | 95° |
| 2026-04-29 14:57 | -1.38630 | 36.75037 | 7534 ft | 245 kts | 95° |
| 2026-04-29 14:58 | -1.38781 | 36.76618 | 7527 ft | 213 kts | 95° |
| 2026-04-29 14:58 | -1.38914 | 36.78000 | 7507 ft | 189 kts | 95° |
| 2026-04-29 14:58 | -1.39035 | 36.79271 | 7534 ft | 176 kts | 95° |
| 2026-04-29 14:58 | -1.39143 | 36.80436 | 7531 ft | 160 kts | 95° |
| 2026-04-29 14:59 | -1.39234 | 36.81503 | 7519 ft | 149 kts | 93° |
| 2026-04-29 14:59 | -1.39091 | 36.82546 | 7483 ft | 156 kts | 73° |
| 2026-04-29 14:59 | -1.38631 | 36.83514 | 7309 ft | 154 kts | 59° |
| 2026-04-29 14:59 | -1.38035 | 36.84387 | 7129 ft | 151 kts | 54° |
| 2026-04-29 15:00 | -1.37414 | 36.85234 | 6955 ft | 151 kts | 54° |
| 2026-04-29 15:00 | -1.36792 | 36.86095 | 6754 ft | 153 kts | 55° |
| 2026-04-29 15:00 | -1.36176 | 36.86941 | 6569 ft | 148 kts | 55° |
| 2026-04-29 15:00 | -1.35564 | 36.87784 | 6380 ft | 152 kts | 55° |
| 2026-04-29 15:01 | -1.34941 | 36.88643 | 6157 ft | 150 kts | 55° |
| 2026-04-29 15:01 | -1.34330 | 36.89492 | 5899 ft | 153 kts | 55° |
| 2026-04-29 15:01 | -1.33683 | 36.90367 | 5641 ft | 156 kts | 52° |
| 2026-04-29 15:01 | -1.33063 | 36.91226 | 5446 ft | 158 kts | 53° |
| 2026-04-29 15:02 | -1.32413 | 36.92119 | 5339 ft | 150 kts | 53° |
| 2026-04-29 15:02 | -1.31978 | 36.92708 | 5318 ft | 61 kts | 54° |
| 2026-04-29 15:02 | -1.31873 | 36.92847 | 5314 ft | 11 kts | 53° |
| 2026-04-29 15:02 | -1.31810 | 36.92933 | 5314 ft | 19 kts | 54° |
| 2026-04-29 15:03 | -1.31711 | 36.93066 | 5314 ft | 29 kts | 54° |
| 2026-04-29 15:03 | -1.31593 | 36.93228 | 5316 ft | 26 kts | 54° |
| 2026-04-29 15:03 | -1.31568 | 36.93305 | 5315 ft | 10 kts | 93° |
| 2026-04-29 15:03 | -1.31608 | 36.93362 | 5309 ft | 11 kts | 138° |
| 2026-04-29 15:04 | -1.31669 | 36.93405 | 5311 ft | 11 kts | 144° |
| 2026-04-29 15:04 | -1.31735 | 36.93452 | 5311 ft | 12 kts | 145° |
| 2026-04-29 15:04 | -1.31796 | 36.93493 | 5310 ft | 9 kts | 150° |
| 2026-04-29 15:04 | -1.31817 | 36.93476 | 5309 ft | 5 kts | 226° |
| 2026-04-29 15:05 | -1.31848 | 36.93434 | 5311 ft | 9 kts | 233° |
| 2026-04-29 15:05 | -1.31889 | 36.93380 | 5310 ft | 10 kts | 233° |
| 2026-04-29 15:05 | -1.31930 | 36.93324 | 5313 ft | 10 kts | 233° |
| 2026-04-29 15:05 | -1.31972 | 36.93268 | 5318 ft | 10 kts | 233° |
| 2026-04-29 15:06 | -1.32029 | 36.93192 | 5313 ft | 18 kts | 234° |
| 2026-04-29 15:06 | -1.32116 | 36.93074 | 5316 ft | 24 kts | 233° |
| 2026-04-29 15:06 | -1.32224 | 36.92929 | 5319 ft | 26 kts | 234° |
| 2026-04-29 15:06 | -1.32327 | 36.92785 | 5332 ft | 25 kts | 234° |
| 2026-04-29 15:07 | -1.32425 | 36.92650 | 5336 ft | 23 kts | 234° |
| 2026-04-29 15:07 | -1.32519 | 36.92521 | 5339 ft | 22 kts | 234° |
| 2026-04-29 15:07 | -1.32608 | 36.92398 | 5335 ft | 21 kts | 234° |
| 2026-04-29 15:07 | -1.32654 | 36.92336 | 5338 ft | 9 kts | 227° |
| 2026-04-29 15:08 | -1.32683 | 36.92348 | 5340 ft | 4 kts | 136° |
| 2026-04-29 15:08 | -1.32725 | 36.92379 | 5341 ft | 10 kts | 145° |
| 2026-04-29 15:08 | -1.32788 | 36.92383 | 5339 ft | 8 kts | 179° |
| 2026-04-29 15:08 | -1.32836 | 36.92406 | 5340 ft | 8 kts | 156° |
| 2026-04-29 15:09 | -1.32860 | 36.92416 | 5341 ft | 0 kts | 156° |